sensor_id;sensor_type;location;lat;lon;timestamp;pressure;altitude;pressure_sealevel;temperature;humidity
73870;BME280;64924;42.140;24.762;2023-04-28T00:01:39;99804.25;;;14.88;32.70
73870;BME280;64924;42.140;24.762;2023-04-28T00:04:04;99770.31;;;14.70;32.33
73870;BME280;64924;42.140;24.762;2023-04-28T00:06:30;99818.94;;;15.00;31.90
73870;BME280;64924;42.140;24.762;2023-04-28T00:08:55;99820.44;;;14.96;31.88
73870;BME280;64924;42.140;24.762;2023-04-28T00:11:20;99775.97;;;14.76;31.45
73870;BME280;64924;42.140;24.762;2023-04-28T00:13:46;99814.78;;;14.91;32.27
73870;BME280;64924;42.140;24.762;2023-04-28T00:16:11;99769.31;;;14.58;32.07
73870;BME280;64924;42.140;24.762;2023-04-28T00:18:37;99823.25;;;14.83;32.05
73870;BME280;64924;42.140;24.762;2023-04-28T00:21:02;99824.53;;;14.80;31.98
73870;BME280;64924;42.140;24.762;2023-04-28T00:23:28;99821.59;;;14.82;32.20
73870;BME280;64924;42.140;24.762;2023-04-28T00:25:54;99819.47;;;14.84;32.58
73870;BME280;64924;42.140;24.762;2023-04-28T00:28:21;99814.44;;;14.81;32.97
73870;BME280;64924;42.140;24.762;2023-04-28T00:30:47;99810.25;;;14.78;32.78
73870;BME280;64924;42.140;24.762;2023-04-28T00:33:12;99830.16;;;14.85;32.54
73870;BME280;64924;42.140;24.762;2023-04-28T00:35:39;99808.34;;;14.79;32.60
73870;BME280;64924;42.140;24.762;2023-04-28T00:38:04;99823.19;;;14.89;32.77
73870;BME280;64924;42.140;24.762;2023-04-28T00:40:34;99813.72;;;14.92;32.48
73870;BME280;64924;42.140;24.762;2023-04-28T00:42:59;99821.53;;;14.88;32.78
73870;BME280;64924;42.140;24.762;2023-04-28T00:45:25;99814.44;;;14.81;32.52
73870;BME280;64924;42.140;24.762;2023-04-28T00:47:51;99821.59;;;14.82;32.39
73870;BME280;64924;42.140;24.762;2023-04-28T00:50:17;99776.56;;;14.46;32.53
73870;BME280;64924;42.140;24.762;2023-04-28T00:52:42;99817.44;;;14.66;32.80
73870;BME280;64924;42.140;24.762;2023-04-28T00:55:08;99818.69;;;14.70;32.71
73870;BME280;64924;42.140;24.762;2023-04-28T00:57:34;99820.41;;;14.64;32.98
73870;BME280;64924;42.140;24.762;2023-04-28T01:00:00;99784.34;;;14.43;32.72
73870;BME280;64924;42.140;24.762;2023-04-28T01:02:26;99817.50;;;14.53;32.93
73870;BME280;64924;42.140;24.762;2023-04-28T01:04:55;99829.66;;;14.63;33.13
73870;BME280;64924;42.140;24.762;2023-04-28T01:07:21;99832.66;;;14.55;32.85
73870;BME280;64924;42.140;24.762;2023-04-28T01:09:46;99830.38;;;14.39;33.53
73870;BME280;64924;42.140;24.762;2023-04-28T01:12:12;99834.19;;;14.31;33.49
73870;BME280;64924;42.140;24.762;2023-04-28T01:14:38;99830.63;;;14.31;33.41
73870;BME280;64924;42.140;24.762;2023-04-28T01:17:04;99822.44;;;14.24;33.39
73870;BME280;64924;42.140;24.762;2023-04-28T01:19:29;99833.75;;;14.34;33.58
73870;BME280;64924;42.140;24.762;2023-04-28T01:21:55;99831.88;;;14.28;33.71
73870;BME280;64924;42.140;24.762;2023-04-28T01:24:20;99819.31;;;14.14;34.15
73870;BME280;64924;42.140;24.762;2023-04-28T01:26:46;99817.41;;;14.15;34.08
73870;BME280;64924;42.140;24.762;2023-04-28T01:29:12;99812.22;;;14.00;34.23
73870;BME280;64924;42.140;24.762;2023-04-28T01:31:37;99829.88;;;14.11;34.14
73870;BME280;64924;42.140;24.762;2023-04-28T01:34:03;99827.16;;;14.04;34.48
73870;BME280;64924;42.140;24.762;2023-04-28T01:36:28;99823.38;;;13.92;34.71
73870;BME280;64924;42.140;24.762;2023-04-28T01:38:54;99837.47;;;13.95;35.15
73870;BME280;64924;42.140;24.762;2023-04-28T01:41:19;99824.44;;;13.84;34.88
73870;BME280;64924;42.140;24.762;2023-04-28T01:43:45;99831.78;;;13.84;34.92
73870;BME280;64924;42.140;24.762;2023-04-28T01:46:10;99823.19;;;13.80;35.19
73870;BME280;64924;42.140;24.762;2023-04-28T01:48:36;99838.31;;;13.89;35.11
73870;BME280;64924;42.140;24.762;2023-04-28T01:51:01;99834.75;;;13.82;35.00
73870;BME280;64924;42.140;24.762;2023-04-28T01:53:27;99830.56;;;13.73;35.23
73870;BME280;64924;42.140;24.762;2023-04-28T01:55:53;99836.41;;;13.77;35.07
73870;BME280;64924;42.140;24.762;2023-04-28T01:58:18;99802.66;;;13.58;35.29
73870;BME280;64924;42.140;24.762;2023-04-28T02:00:44;99821.97;;;13.63;35.17
73870;BME280;64924;42.140;24.762;2023-04-28T02:03:10;99808.09;;;13.45;35.00
73870;BME280;64924;42.140;24.762;2023-04-28T02:05:36;99831.63;;;13.59;35.25
73870;BME280;64924;42.140;24.762;2023-04-28T02:08:01;99845.91;;;13.61;35.14
73870;BME280;64924;42.140;24.762;2023-04-28T02:10:27;99811.28;;;13.35;35.18
73870;BME280;64924;42.140;24.762;2023-04-28T02:12:53;99846.75;;;13.55;35.21
73870;BME280;64924;42.140;24.762;2023-04-28T02:15:18;99791.91;;;13.10;35.72
73870;BME280;64924;42.140;24.762;2023-04-28T02:17:44;99849.47;;;13.28;35.46
73870;BME280;64924;42.140;24.762;2023-04-28T02:20:10;99841.28;;;13.22;35.91
73870;BME280;64924;42.140;24.762;2023-04-28T02:22:36;99843.19;;;13.21;35.84
73870;BME280;64924;42.140;24.762;2023-04-28T02:25:01;99831.59;;;13.13;35.82
73870;BME280;64924;42.140;24.762;2023-04-28T02:27:27;99853.03;;;13.22;35.84
73870;BME280;64924;42.140;24.762;2023-04-28T02:29:53;99841.66;;;13.12;35.43
73870;BME280;64924;42.140;24.762;2023-04-28T02:32:18;99847.72;;;13.07;35.40
73870;BME280;64924;42.140;24.762;2023-04-28T02:34:44;99853.81;;;13.03;35.87
73870;BME280;64924;42.140;24.762;2023-04-28T02:37:10;99850.69;;;12.99;35.79
73870;BME280;64924;42.140;24.762;2023-04-28T02:39:36;99843.31;;;12.93;35.87
73870;BME280;64924;42.140;24.762;2023-04-28T02:42:01;99847.28;;;12.91;36.14
73870;BME280;64924;42.140;24.762;2023-04-28T02:44:29;99814.72;;;12.69;35.43
73870;BME280;64924;42.140;24.762;2023-04-28T02:46:55;99840.97;;;12.84;35.45
73870;BME280;64924;42.140;24.762;2023-04-28T02:49:21;99788.03;;;12.45;35.66
73870;BME280;64924;42.140;24.762;2023-04-28T02:51:46;99854.63;;;12.84;35.38
73870;BME280;64924;42.140;24.762;2023-04-28T02:54:12;99858.38;;;12.83;35.33
73870;BME280;64924;42.140;24.762;2023-04-28T02:56:38;99851.47;;;12.80;35.71
73870;BME280;64924;42.140;24.762;2023-04-28T02:59:05;99854.84;;;12.89;35.13
73870;BME280;64924;42.140;24.762;2023-04-28T03:01:31;99874.97;;;12.88;35.02
73870;BME280;64924;42.140;24.762;2023-04-28T03:03:57;99858.16;;;12.78;35.08
73870;BME280;64924;42.140;24.762;2023-04-28T03:06:22;99876.41;;;12.77;34.63
73870;BME280;64924;42.140;24.762;2023-04-28T03:08:47;99866.50;;;12.69;34.89
73870;BME280;64924;42.140;24.762;2023-04-28T03:11:13;99881.81;;;12.70;35.04
73870;BME280;64924;42.140;24.762;2023-04-28T03:13:39;99875.34;;;12.71;34.55
73870;BME280;64924;42.140;24.762;2023-04-28T03:16:05;99872.59;;;12.71;34.19
73870;BME280;64924;42.140;24.762;2023-04-28T03:18:32;99872.19;;;12.75;34.26
73870;BME280;64924;42.140;24.762;2023-04-28T03:20:57;99885.66;;;12.83;34.15
73870;BME280;64924;42.140;24.762;2023-04-28T03:23:23;99854.53;;;12.57;34.32
73870;BME280;64924;42.140;24.762;2023-04-28T03:25:48;99890.66;;;12.72;34.34
73870;BME280;64924;42.140;24.762;2023-04-28T03:28:13;99897.13;;;12.71;34.34
73870;BME280;64924;42.140;24.762;2023-04-28T03:30:40;99896.91;;;12.66;34.25
73870;BME280;64924;42.140;24.762;2023-04-28T03:33:05;99898.81;;;12.72;34.31
73870;BME280;64924;42.140;24.762;2023-04-28T03:35:31;99879.88;;;12.51;34.51
73870;BME280;64924;42.140;24.762;2023-04-28T03:37:57;99901.78;;;12.78;33.86
73870;BME280;64924;42.140;24.762;2023-04-28T03:40:22;99918.84;;;12.93;33.90
73870;BME280;64924;42.140;24.762;2023-04-28T03:42:48;99930.06;;;13.18;33.38
73870;BME280;64924;42.140;24.762;2023-04-28T03:45:13;99929.91;;;13.79;32.70
73870;BME280;64924;42.140;24.762;2023-04-28T03:47:39;99933.88;;;14.42;31.88
73870;BME280;64924;42.140;24.762;2023-04-28T03:50:04;99926.28;;;14.95;30.64
73870;BME280;64924;42.140;24.762;2023-04-28T03:52:30;99930.72;;;15.66;29.92
73870;BME280;64924;42.140;24.762;2023-04-28T03:54:56;99933.47;;;16.34;28.84
73870;BME280;64924;42.140;24.762;2023-04-28T03:57:22;99935.88;;;17.03;27.94
73870;BME280;64924;42.140;24.762;2023-04-28T03:59:47;99936.88;;;17.51;27.14
73870;BME280;64924;42.140;24.762;2023-04-28T04:02:13;99943.22;;;17.81;26.58
73870;BME280;64924;42.140;24.762;2023-04-28T04:04:38;99950.78;;;18.32;25.78
73870;BME280;64924;42.140;24.762;2023-04-28T04:07:03;99959.50;;;18.88;25.23
73870;BME280;64924;42.140;24.762;2023-04-28T04:09:29;99958.91;;;19.26;24.33
73870;BME280;64924;42.140;24.762;2023-04-28T04:11:54;99918.09;;;19.40;23.92
73870;BME280;64924;42.140;24.762;2023-04-28T04:14:20;99928.81;;;19.98;23.27
73870;BME280;64924;42.140;24.762;2023-04-28T04:16:45;99961.00;;;20.26;23.30
73870;BME280;64924;42.140;24.762;2023-04-28T04:19:12;99964.16;;;20.68;22.86
73870;BME280;64924;42.140;24.762;2023-04-28T04:21:37;99934.28;;;21.09;22.48
73870;BME280;64924;42.140;24.762;2023-04-28T04:24:03;99965.66;;;21.68;21.52
73870;BME280;64924;42.140;24.762;2023-04-28T04:26:28;99924.75;;;22.02;20.97
73870;BME280;64924;42.140;24.762;2023-04-28T04:28:54;99965.66;;;22.64;20.70
73870;BME280;64924;42.140;24.762;2023-04-28T04:31:19;99972.25;;;23.05;20.36
73870;BME280;64924;42.140;24.762;2023-04-28T04:33:46;99963.53;;;23.49;19.71
73870;BME280;64924;42.140;24.762;2023-04-28T04:36:12;99940.84;;;23.62;19.23
73870;BME280;64924;42.140;24.762;2023-04-28T04:38:38;99956.44;;;23.93;19.27
73870;BME280;64924;42.140;24.762;2023-04-28T04:41:03;99966.69;;;24.18;18.65
73870;BME280;64924;42.140;24.762;2023-04-28T04:43:29;99962.28;;;24.27;18.68
73870;BME280;64924;42.140;24.762;2023-04-28T04:45:54;99974.50;;;24.47;18.55
73870;BME280;64924;42.140;24.762;2023-04-28T04:48:20;99978.53;;;24.95;18.27
73870;BME280;64924;42.140;24.762;2023-04-28T04:50:45;99983.69;;;25.37;17.71
73870;BME280;64924;42.140;24.762;2023-04-28T04:53:11;99938.78;;;25.05;17.74
73870;BME280;64924;42.140;24.762;2023-04-28T04:55:37;99987.72;;;25.06;17.95
73870;BME280;64924;42.140;24.762;2023-04-28T04:58:02;99990.22;;;25.02;18.00
73870;BME280;64924;42.140;24.762;2023-04-28T05:00:28;99996.78;;;25.37;17.64
73870;BME280;64924;42.140;24.762;2023-04-28T05:02:53;99967.97;;;25.07;17.71
73870;BME280;64924;42.140;24.762;2023-04-28T05:05:19;99998.25;;;25.24;17.97
73870;BME280;64924;42.140;24.762;2023-04-28T05:07:45;100000.97;;;25.88;17.51
73870;BME280;64924;42.140;24.762;2023-04-28T05:10:10;100000.00;;;26.42;16.92
73870;BME280;64924;42.140;24.762;2023-04-28T05:12:39;99995.34;;;26.90;16.46
73870;BME280;64924;42.140;24.762;2023-04-28T05:15:05;99998.28;;;27.28;16.45
73870;BME280;64924;42.140;24.762;2023-04-28T05:17:32;99996.06;;;27.06;15.88
73870;BME280;64924;42.140;24.762;2023-04-28T05:19:58;100005.50;;;26.81;16.29
73870;BME280;64924;42.140;24.762;2023-04-28T05:22:23;100005.09;;;26.93;16.33
73870;BME280;64924;42.140;24.762;2023-04-28T05:24:50;100000.44;;;27.36;15.80
73870;BME280;64924;42.140;24.762;2023-04-28T05:27:15;100001.25;;;27.60;16.05
73870;BME280;64924;42.140;24.762;2023-04-28T05:29:41;99987.47;;;27.45;15.38
73870;BME280;64924;42.140;24.762;2023-04-28T05:32:06;100012.63;;;27.64;15.77
73870;BME280;64924;42.140;24.762;2023-04-28T05:34:32;100021.72;;;27.93;15.53
73870;BME280;64924;42.140;24.762;2023-04-28T05:36:57;100018.91;;;28.12;15.14
73870;BME280;64924;42.140;24.762;2023-04-28T05:39:23;100019.72;;;28.50;14.86
73870;BME280;64924;42.140;24.762;2023-04-28T05:41:48;99989.91;;;28.27;15.23
73870;BME280;64924;42.140;24.762;2023-04-28T05:44:13;100013.84;;;28.33;14.64
73870;BME280;64924;42.140;24.762;2023-04-28T05:46:39;99993.53;;;27.90;14.92
73870;BME280;64924;42.140;24.762;2023-04-28T05:49:04;100014.09;;;27.80;15.28
73870;BME280;64924;42.140;24.762;2023-04-28T05:51:30;100017.56;;;28.28;15.23
73870;BME280;64924;42.140;24.762;2023-04-28T05:53:55;100021.91;;;28.21;14.78
73870;BME280;64924;42.140;24.762;2023-04-28T05:56:21;100020.22;;;27.82;14.93
73870;BME280;64924;42.140;24.762;2023-04-28T05:58:47;100034.41;;;28.05;15.08
73870;BME280;64924;42.140;24.762;2023-04-28T06:01:14;100035.06;;;28.34;14.64
73870;BME280;64924;42.140;24.762;2023-04-28T06:03:41;100028.47;;;28.95;14.57
73870;BME280;64924;42.140;24.762;2023-04-28T06:06:07;100032.53;;;29.44;14.16
73870;BME280;64924;42.140;24.762;2023-04-28T06:08:33;100034.19;;;30.08;13.83
73870;BME280;64924;42.140;24.762;2023-04-28T06:10:58;100016.69;;;30.47;13.31
73870;BME280;64924;42.140;24.762;2023-04-28T06:13:24;100033.59;;;31.09;13.03
73870;BME280;64924;42.140;24.762;2023-04-28T06:15:49;100030.56;;;30.97;13.12
73870;BME280;64924;42.140;24.762;2023-04-28T06:18:15;100028.63;;;31.06;12.58
73870;BME280;64924;42.140;24.762;2023-04-28T06:20:41;100034.97;;;31.20;12.66
73870;BME280;64924;42.140;24.762;2023-04-28T06:23:07;100027.91;;;31.71;12.55
73870;BME280;64924;42.140;24.762;2023-04-28T06:25:34;100033.75;;;31.92;12.63
73870;BME280;64924;42.140;24.762;2023-04-28T06:28:00;100039.25;;;31.66;12.44
73870;BME280;64924;42.140;24.762;2023-04-28T06:30:26;100031.41;;;31.85;12.38
73870;BME280;64924;42.140;24.762;2023-04-28T06:32:51;100041.50;;;32.12;12.11
73870;BME280;64924;42.140;24.762;2023-04-28T06:35:17;100036.06;;;32.33;12.07
73870;BME280;64924;42.140;24.762;2023-04-28T06:37:42;100024.47;;;32.17;12.21
73870;BME280;64924;42.140;24.762;2023-04-28T06:40:09;100038.03;;;32.15;12.44
73870;BME280;64924;42.140;24.762;2023-04-28T06:42:35;100048.28;;;32.11;12.19
73870;BME280;64924;42.140;24.762;2023-04-28T06:45:01;100046.63;;;32.10;12.10
73870;BME280;64924;42.140;24.762;2023-04-28T06:47:26;100039.50;;;32.04;12.59
73870;BME280;64924;42.140;24.762;2023-04-28T06:49:52;100038.06;;;32.33;12.34
73870;BME280;64924;42.140;24.762;2023-04-28T06:52:18;100042.47;;;32.85;12.10
73870;BME280;64924;42.140;24.762;2023-04-28T06:54:45;100036.19;;;32.71;12.23
73870;BME280;64924;42.140;24.762;2023-04-28T06:57:11;100040.03;;;32.41;12.44
73870;BME280;64924;42.140;24.762;2023-04-28T06:59:36;100041.69;;;31.42;12.56
73870;BME280;64924;42.140;24.762;2023-04-28T07:02:02;100040.13;;;31.27;12.54
73870;BME280;64924;42.140;24.762;2023-04-28T07:04:27;100034.59;;;31.44;12.45
73870;BME280;64924;42.140;24.762;2023-04-28T07:06:53;100041.47;;;31.78;12.64
73870;BME280;64924;42.140;24.762;2023-04-28T07:09:18;100011.38;;;31.96;12.17
73870;BME280;64924;42.140;24.762;2023-04-28T07:11:44;100026.78;;;31.98;12.03
73870;BME280;64924;42.140;24.762;2023-04-28T07:14:10;100034.25;;;32.46;12.20
73870;BME280;64924;42.140;24.762;2023-04-28T07:16:35;100033.91;;;32.13;11.67
73870;BME280;64924;42.140;24.762;2023-04-28T07:19:01;100030.75;;;31.97;12.08
73870;BME280;64924;42.140;24.762;2023-04-28T07:21:27;100037.22;;;31.41;12.32
73870;BME280;64924;42.140;24.762;2023-04-28T07:23:53;100026.91;;;31.19;12.29
73870;BME280;64924;42.140;24.762;2023-04-28T07:26:23;100029.88;;;30.02;13.48
73870;BME280;64924;42.140;24.762;2023-04-28T07:28:49;100011.28;;;30.29;13.54
73870;BME280;64924;42.140;24.762;2023-04-28T07:31:15;100032.22;;;31.29;12.69
73870;BME280;64924;42.140;24.762;2023-04-28T07:33:41;100026.78;;;31.89;12.45
73870;BME280;64924;42.140;24.762;2023-04-28T07:36:06;100031.28;;;32.25;12.25
73870;BME280;64924;42.140;24.762;2023-04-28T07:38:33;100036.88;;;32.08;12.33
73870;BME280;64924;42.140;24.762;2023-04-28T07:40:59;100020.34;;;32.15;12.41
73870;BME280;64924;42.140;24.762;2023-04-28T07:43:25;100034.56;;;32.10;12.60
73870;BME280;64924;42.140;24.762;2023-04-28T07:45:50;100036.22;;;32.19;12.17
73870;BME280;64924;42.140;24.762;2023-04-28T07:48:16;100025.38;;;31.52;12.49
73870;BME280;64924;42.140;24.762;2023-04-28T07:50:41;100023.97;;;31.33;12.92
73870;BME280;64924;42.140;24.762;2023-04-28T07:53:07;100019.63;;;31.18;12.48
73870;BME280;64924;42.140;24.762;2023-04-28T07:55:33;100016.41;;;30.71;12.91
73870;BME280;64924;42.140;24.762;2023-04-28T07:57:58;100024.19;;;30.83;13.11
73870;BME280;64924;42.140;24.762;2023-04-28T08:00:24;100016.16;;;31.21;13.21
73870;BME280;64924;42.140;24.762;2023-04-28T08:02:50;100008.56;;;31.21;12.86
73870;BME280;64924;42.140;24.762;2023-04-28T08:05:16;100010.53;;;30.81;13.01
73870;BME280;64924;42.140;24.762;2023-04-28T08:07:42;100017.41;;;30.75;13.07
73870;BME280;64924;42.140;24.762;2023-04-28T08:10:10;100005.81;;;30.68;13.49
73870;BME280;64924;42.140;24.762;2023-04-28T08:12:36;99990.81;;;30.73;12.97
73870;BME280;64924;42.140;24.762;2023-04-28T08:15:03;100008.34;;;30.56;13.69
73870;BME280;64924;42.140;24.762;2023-04-28T08:17:28;100013.44;;;30.54;13.36
73870;BME280;64924;42.140;24.762;2023-04-28T08:19:54;99975.34;;;30.08;13.66
73870;BME280;64924;42.140;24.762;2023-04-28T08:22:19;100010.00;;;30.12;14.03
73870;BME280;64924;42.140;24.762;2023-04-28T08:24:45;100002.03;;;30.06;13.77
73870;BME280;64924;42.140;24.762;2023-04-28T08:27:11;100018.66;;;29.88;13.93
73870;BME280;64924;42.140;24.762;2023-04-28T08:29:36;99995.91;;;29.54;14.22
73870;BME280;64924;42.140;24.762;2023-04-28T08:32:02;100000.66;;;29.67;13.94
73870;BME280;64924;42.140;24.762;2023-04-28T08:34:31;99999.13;;;29.61;14.00
73870;BME280;64924;42.140;24.762;2023-04-28T08:36:56;100006.69;;;29.60;14.15
73870;BME280;64924;42.140;24.762;2023-04-28T08:39:22;99985.03;;;29.11;14.57
73870;BME280;64924;42.140;24.762;2023-04-28T08:41:48;99952.91;;;28.95;14.30
73870;BME280;64924;42.140;24.762;2023-04-28T08:44:13;99982.75;;;29.13;14.79
73870;BME280;64924;42.140;24.762;2023-04-28T08:46:43;99992.38;;;29.21;14.62
73870;BME280;64924;42.140;24.762;2023-04-28T08:49:16;99988.34;;;28.86;14.88
73870;BME280;64924;42.140;24.762;2023-04-28T08:51:49;99981.59;;;28.87;15.12
73870;BME280;64924;42.140;24.762;2023-04-28T08:54:16;99985.69;;;28.76;15.02
73870;BME280;64924;42.140;24.762;2023-04-28T08:56:42;99961.22;;;28.68;14.91
73870;BME280;64924;42.140;24.762;2023-04-28T08:59:10;99963.88;;;28.13;15.26
73870;BME280;64924;42.140;24.762;2023-04-28T09:01:36;99980.59;;;26.90;16.02
73870;BME280;64924;42.140;24.762;2023-04-28T09:04:03;99974.75;;;26.28;16.63
73870;BME280;64924;42.140;24.762;2023-04-28T09:06:34;99998.13;;;25.98;18.01
73870;BME280;64924;42.140;24.762;2023-04-28T09:12:10;99996.97;;;24.05;20.45
73870;BME280;64924;42.140;24.762;2023-04-28T09:14:37;99991.00;;;23.50;21.20
73870;BME280;64924;42.140;24.762;2023-04-28T09:17:13;99988.34;;;22.66;21.85
73870;BME280;64924;42.140;24.762;2023-04-28T09:19:40;99928.75;;;21.84;23.14
73870;BME280;64924;42.140;24.762;2023-04-28T09:22:07;99968.41;;;21.68;23.43
73870;BME280;64924;42.140;24.762;2023-04-28T09:24:37;99988.19;;;22.09;23.25
73870;BME280;64924;42.140;24.762;2023-04-28T09:27:08;99973.09;;;22.21;22.03
73870;BME280;64924;42.140;24.762;2023-04-28T09:29:51;99969.13;;;22.12;21.80
73870;BME280;64924;42.140;24.762;2023-04-28T09:32:18;99969.53;;;21.99;21.89
73870;BME280;64924;42.140;24.762;2023-04-28T09:34:47;99977.75;;;21.89;22.19
73870;BME280;64924;42.140;24.762;2023-04-28T09:39:44;99972.69;;;22.08;21.80
73870;BME280;64924;42.140;24.762;2023-04-28T09:42:10;99969.63;;;22.04;22.14
73870;BME280;64924;42.140;24.762;2023-04-28T09:44:35;99959.22;;;22.16;22.32
73870;BME280;64924;42.140;24.762;2023-04-28T09:47:18;99925.88;;;21.74;21.82
73870;BME280;64924;42.140;24.762;2023-04-28T09:49:57;99960.28;;;21.56;22.90
73870;BME280;64924;42.140;24.762;2023-04-28T09:52:23;99971.31;;;21.51;22.51
73870;BME280;64924;42.140;24.762;2023-04-28T09:54:53;99963.91;;;21.13;23.01
73870;BME280;64924;42.140;24.762;2023-04-28T09:57:19;99969.19;;;20.54;23.72
73870;BME280;64924;42.140;24.762;2023-04-28T09:59:50;99956.84;;;20.79;23.90
73870;BME280;64924;42.140;24.762;2023-04-28T10:02:17;99949.19;;;20.86;23.35
73870;BME280;64924;42.140;24.762;2023-04-28T10:04:44;99952.34;;;20.73;23.78
73870;BME280;64924;42.140;24.762;2023-04-28T10:07:15;99956.00;;;20.78;23.97
73870;BME280;64924;42.140;24.762;2023-04-28T10:09:44;99960.38;;;20.74;23.54
73870;BME280;64924;42.140;24.762;2023-04-28T10:12:13;99921.78;;;20.79;23.45
73870;BME280;64924;42.140;24.762;2023-04-28T10:14:40;99909.59;;;20.80;23.47
73870;BME280;64924;42.140;24.762;2023-04-28T10:17:06;99906.66;;;20.87;23.35
73870;BME280;64924;42.140;24.762;2023-04-28T10:19:33;99944.88;;;21.17;23.46
73870;BME280;64924;42.140;24.762;2023-04-28T10:27:50;99940.25;;;20.23;24.11
73870;BME280;64924;42.140;24.762;2023-04-28T10:30:23;99929.63;;;20.32;24.07
73870;BME280;64924;42.140;24.762;2023-04-28T10:35:42;99923.44;;;20.08;25.11
73870;BME280;64924;42.140;24.762;2023-04-28T10:38:09;99917.44;;;19.78;25.19
73870;BME280;64924;42.140;24.762;2023-04-28T10:40:42;99922.06;;;19.89;25.39
73870;BME280;64924;42.140;24.762;2023-04-28T10:43:11;99912.53;;;19.96;25.28
73870;BME280;64924;42.140;24.762;2023-04-28T10:56:15;99902.50;;;19.90;25.56
73870;BME280;64924;42.140;24.762;2023-04-28T10:58:45;99906.72;;;20.15;25.31
73870;BME280;64924;42.140;24.762;2023-04-28T11:06:37;99867.06;;;20.76;23.98
73870;BME280;64924;42.140;24.762;2023-04-28T11:14:32;99885.16;;;21.38;22.80
73870;BME280;64924;42.140;24.762;2023-04-28T11:16:59;99889.97;;;21.47;23.13
73870;BME280;64924;42.140;24.762;2023-04-28T11:21:54;99896.94;;;21.28;23.43
73870;BME280;64924;42.140;24.762;2023-04-28T11:24:21;99903.63;;;21.10;23.64
73870;BME280;64924;42.140;24.762;2023-04-28T11:26:49;99896.38;;;21.04;23.90
73870;BME280;64924;42.140;24.762;2023-04-28T11:29:15;99887.63;;;21.12;23.73
73870;BME280;64924;42.140;24.762;2023-04-28T11:31:49;99887.16;;;21.20;23.41
73870;BME280;64924;42.140;24.762;2023-04-28T11:34:18;99883.41;;;20.83;23.42
73870;BME280;64924;42.140;24.762;2023-04-28T11:36:45;99893.03;;;20.58;24.10
73870;BME280;64924;42.140;24.762;2023-04-28T11:39:12;99861.81;;;20.36;24.38
73870;BME280;64924;42.140;24.762;2023-04-28T11:41:42;99877.50;;;20.52;23.26
73870;BME280;64924;42.140;24.762;2023-04-28T11:44:14;99879.06;;;20.65;23.63
73870;BME280;64924;42.140;24.762;2023-04-28T11:49:17;99876.13;;;20.16;24.46
73870;BME280;64924;42.140;24.762;2023-04-28T11:51:43;99874.84;;;20.02;24.33
73870;BME280;64924;42.140;24.762;2023-04-28T11:54:19;99867.03;;;20.16;24.24
73870;BME280;64924;42.140;24.762;2023-04-28T11:56:45;99869.94;;;20.26;24.52
73870;BME280;64924;42.140;24.762;2023-04-28T11:59:12;99874.22;;;20.17;24.46
73870;BME280;64924;42.140;24.762;2023-04-28T12:01:52;99861.44;;;20.49;24.23
73870;BME280;64924;42.140;24.762;2023-04-28T12:07:16;99835.94;;;20.42;24.25
73870;BME280;64924;42.140;24.762;2023-04-28T12:09:45;99849.44;;;20.60;23.93
73870;BME280;64924;42.140;24.762;2023-04-28T12:12:28;99851.13;;;20.40;24.24
73870;BME280;64924;42.140;24.762;2023-04-28T12:14:56;99845.25;;;20.36;23.88
73870;BME280;64924;42.140;24.762;2023-04-28T12:17:31;99834.16;;;20.53;23.65
73870;BME280;64924;42.140;24.762;2023-04-28T12:20:03;99824.47;;;20.50;24.19
73870;BME280;64924;42.140;24.762;2023-04-28T12:22:29;99815.88;;;20.47;23.58
73870;BME280;64924;42.140;24.762;2023-04-28T12:25:08;99820.28;;;20.26;24.31
73870;BME280;64924;42.140;24.762;2023-04-28T12:27:36;99816.84;;;19.97;24.40
73870;BME280;64924;42.140;24.762;2023-04-28T12:32:49;99829.88;;;19.68;25.02
73870;BME280;64924;42.140;24.762;2023-04-28T12:35:14;99812.25;;;19.86;24.85
73870;BME280;64924;42.140;24.762;2023-04-28T12:37:43;99802.81;;;20.20;24.52
73870;BME280;64924;42.140;24.762;2023-04-28T12:40:09;99799.72;;;20.17;24.44
73870;BME280;64924;42.140;24.762;2023-04-28T12:42:36;99799.22;;;20.20;24.71
73870;BME280;64924;42.140;24.762;2023-04-28T12:45:01;99806.06;;;19.95;25.38
73870;BME280;64924;42.140;24.762;2023-04-28T12:47:27;99790.00;;;19.92;24.79
73870;BME280;64924;42.140;24.762;2023-04-28T12:49:53;99773.16;;;19.72;25.16
73870;BME280;64924;42.140;24.762;2023-04-28T12:52:19;99792.69;;;19.70;25.01
73870;BME280;64924;42.140;24.762;2023-04-28T12:54:45;99788.84;;;19.72;24.95
73870;BME280;64924;42.140;24.762;2023-04-28T12:57:14;99791.59;;;19.88;25.36
73870;BME280;64924;42.140;24.762;2023-04-28T12:59:39;99780.06;;;19.91;24.77
73870;BME280;64924;42.140;24.762;2023-04-28T13:02:04;99775.84;;;19.67;24.76
73870;BME280;64924;42.140;24.762;2023-04-28T13:04:30;99783.47;;;19.60;24.94
73870;BME280;64924;42.140;24.762;2023-04-28T13:06:56;99783.44;;;19.43;25.33
73870;BME280;64924;42.140;24.762;2023-04-28T13:09:23;99761.81;;;19.52;24.97
73870;BME280;64924;42.140;24.762;2023-04-28T13:11:49;99762.06;;;19.67;24.78
73870;BME280;64924;42.140;24.762;2023-04-28T13:14:14;99717.47;;;19.53;24.73
73870;BME280;64924;42.140;24.762;2023-04-28T13:16:40;99749.84;;;19.80;25.25
73870;BME280;64924;42.140;24.762;2023-04-28T13:19:05;99755.84;;;19.77;25.29
73870;BME280;64924;42.140;24.762;2023-04-28T13:21:38;99759.00;;;19.85;25.05
73870;BME280;64924;42.140;24.762;2023-04-28T13:24:04;99758.28;;;19.73;25.01
73870;BME280;64924;42.140;24.762;2023-04-28T13:26:29;99759.94;;;19.74;24.86
73870;BME280;64924;42.140;24.762;2023-04-28T13:28:55;99756.69;;;19.77;25.16
73870;BME280;64924;42.140;24.762;2023-04-28T13:31:21;99752.81;;;19.56;25.42